sensor_id;sensor_type;location;lat;lon;timestamp;P1;durP1;ratioP1;P2;durP2;ratioP2
34144;SDS011;69555;53.014;8.886;2024-01-06T00:00:04;27.92;;;13.23;;
34144;SDS011;69555;53.014;8.886;2024-01-06T00:02:31;27.58;;;14.13;;
34144;SDS011;69555;53.014;8.886;2024-01-06T00:04:58;21.52;;;11.77;;
34144;SDS011;69555;53.014;8.886;2024-01-06T00:07:24;21.85;;;11.95;;
34144;SDS011;69555;53.014;8.886;2024-01-06T00:09:51;25.00;;;11.55;;
34144;SDS011;69555;53.014;8.886;2024-01-06T00:12:19;21.42;;;11.98;;
34144;SDS011;69555;53.014;8.886;2024-01-06T00:14:45;22.92;;;11.60;;
34144;SDS011;69555;53.014;8.886;2024-01-06T00:17:12;20.10;;;12.05;;
34144;SDS011;69555;53.014;8.886;2024-01-06T00:19:39;24.67;;;11.45;;
34144;SDS011;69555;53.014;8.886;2024-01-06T00:22:05;25.88;;;14.00;;
34144;SDS011;69555;53.014;8.886;2024-01-06T00:24:32;24.35;;;12.95;;
34144;SDS011;69555;53.014;8.886;2024-01-06T00:26:59;23.90;;;11.40;;
34144;SDS011;69555;53.014;8.886;2024-01-06T00:29:25;20.40;;;10.40;;
34144;SDS011;69555;53.014;8.886;2024-01-06T00:31:52;28.08;;;12.38;;
34144;SDS011;69555;53.014;8.886;2024-01-06T00:34:19;20.55;;;11.50;;
34144;SDS011;69555;53.014;8.886;2024-01-06T00:36:45;18.90;;;10.68;;
34144;SDS011;69555;53.014;8.886;2024-01-06T00:39:12;22.83;;;11.63;;
34144;SDS011;69555;53.014;8.886;2024-01-06T00:41:38;22.67;;;12.15;;
34144;SDS011;69555;53.014;8.886;2024-01-06T00:44:05;19.60;;;9.20;;
34144;SDS011;69555;53.014;8.886;2024-01-06T00:46:31;20.52;;;10.93;;
34144;SDS011;69555;53.014;8.886;2024-01-06T00:48:58;19.23;;;10.27;;
34144;SDS011;69555;53.014;8.886;2024-01-06T00:51:25;20.70;;;9.73;;
34144;SDS011;69555;53.014;8.886;2024-01-06T00:53:52;22.73;;;10.15;;
34144;SDS011;69555;53.014;8.886;2024-01-06T00:56:19;19.35;;;10.98;;
34144;SDS011;69555;53.014;8.886;2024-01-06T00:58:46;20.23;;;10.30;;
34144;SDS011;69555;53.014;8.886;2024-01-06T01:01:12;21.13;;;9.93;;
34144;SDS011;69555;53.014;8.886;2024-01-06T01:03:39;17.27;;;10.05;;
34144;SDS011;69555;53.014;8.886;2024-01-06T01:06:06;22.23;;;10.10;;
34144;SDS011;69555;53.014;8.886;2024-01-06T01:08:32;17.88;;;9.65;;
34144;SDS011;69555;53.014;8.886;2024-01-06T01:10:59;17.35;;;9.73;;
34144;SDS011;69555;53.014;8.886;2024-01-06T01:13:26;18.55;;;9.05;;
34144;SDS011;69555;53.014;8.886;2024-01-06T01:15:52;20.08;;;10.30;;
34144;SDS011;69555;53.014;8.886;2024-01-06T01:18:19;18.65;;;11.15;;
34144;SDS011;69555;53.014;8.886;2024-01-06T01:20:45;18.95;;;9.70;;
34144;SDS011;69555;53.014;8.886;2024-01-06T01:23:12;18.10;;;9.75;;
34144;SDS011;69555;53.014;8.886;2024-01-06T01:25:39;19.45;;;9.55;;
34144;SDS011;69555;53.014;8.886;2024-01-06T01:28:06;18.05;;;9.60;;
34144;SDS011;69555;53.014;8.886;2024-01-06T01:30:32;17.45;;;10.05;;
34144;SDS011;69555;53.014;8.886;2024-01-06T01:32:59;19.80;;;9.95;;
34144;SDS011;69555;53.014;8.886;2024-01-06T01:35:25;20.88;;;9.35;;
34144;SDS011;69555;53.014;8.886;2024-01-06T01:37:52;16.52;;;8.75;;
34144;SDS011;69555;53.014;8.886;2024-01-06T01:40:19;17.50;;;8.48;;
34144;SDS011;69555;53.014;8.886;2024-01-06T01:42:45;16.83;;;8.88;;
34144;SDS011;69555;53.014;8.886;2024-01-06T01:45:13;17.98;;;9.13;;
34144;SDS011;69555;53.014;8.886;2024-01-06T01:47:40;14.48;;;7.53;;
34144;SDS011;69555;53.014;8.886;2024-01-06T01:50:07;15.60;;;8.02;;
34144;SDS011;69555;53.014;8.886;2024-01-06T01:52:35;18.27;;;9.63;;
34144;SDS011;69555;53.014;8.886;2024-01-06T01:55:02;15.43;;;8.68;;
34144;SDS011;69555;53.014;8.886;2024-01-06T01:57:30;14.85;;;8.07;;
34144;SDS011;69555;53.014;8.886;2024-01-06T01:59:56;17.10;;;9.43;;
34144;SDS011;69555;53.014;8.886;2024-01-06T02:02:23;14.52;;;7.50;;
34144;SDS011;69555;53.014;8.886;2024-01-06T02:04:50;18.08;;;9.00;;
34144;SDS011;69555;53.014;8.886;2024-01-06T02:07:16;16.00;;;8.23;;
34144;SDS011;69555;53.014;8.886;2024-01-06T02:09:43;13.48;;;7.95;;
34144;SDS011;69555;53.014;8.886;2024-01-06T02:12:10;15.63;;;9.00;;
34144;SDS011;69555;53.014;8.886;2024-01-06T02:14:37;17.10;;;7.95;;
34144;SDS011;69555;53.014;8.886;2024-01-06T02:17:03;16.77;;;9.25;;
34144;SDS011;69555;53.014;8.886;2024-01-06T02:19:30;14.00;;;8.38;;
34144;SDS011;69555;53.014;8.886;2024-01-06T02:21:57;17.33;;;9.07;;
34144;SDS011;69555;53.014;8.886;2024-01-06T02:24:23;15.63;;;9.05;;
34144;SDS011;69555;53.014;8.886;2024-01-06T02:26:50;12.73;;;7.47;;
34144;SDS011;69555;53.014;8.886;2024-01-06T02:29:17;15.50;;;8.63;;
34144;SDS011;69555;53.014;8.886;2024-01-06T02:31:43;13.23;;;7.60;;
34144;SDS011;69555;53.014;8.886;2024-01-06T02:34:09;16.38;;;8.82;;
34144;SDS011;69555;53.014;8.886;2024-01-06T02:36:34;15.18;;;7.53;;
34144;SDS011;69555;53.014;8.886;2024-01-06T02:39:00;18.02;;;8.43;;
34144;SDS011;69555;53.014;8.886;2024-01-06T02:41:25;14.77;;;8.50;;
34144;SDS011;69555;53.014;8.886;2024-01-06T02:43:53;13.25;;;8.27;;
34144;SDS011;69555;53.014;8.886;2024-01-06T02:46:20;14.93;;;9.13;;
34144;SDS011;69555;53.014;8.886;2024-01-06T02:48:47;15.23;;;9.00;;
34144;SDS011;69555;53.014;8.886;2024-01-06T02:51:13;14.60;;;8.30;;
34144;SDS011;69555;53.014;8.886;2024-01-06T02:53:40;16.88;;;9.05;;
34144;SDS011;69555;53.014;8.886;2024-01-06T02:56:13;17.13;;;9.43;;
34144;SDS011;69555;53.014;8.886;2024-01-06T02:58:39;17.67;;;9.15;;
34144;SDS011;69555;53.014;8.886;2024-01-06T03:01:06;17.67;;;9.02;;
34144;SDS011;69555;53.014;8.886;2024-01-06T03:03:33;15.82;;;9.32;;
34144;SDS011;69555;53.014;8.886;2024-01-06T03:05:59;14.90;;;9.40;;
34144;SDS011;69555;53.014;8.886;2024-01-06T03:08:26;17.58;;;9.38;;
34144;SDS011;69555;53.014;8.886;2024-01-06T03:10:53;16.17;;;9.45;;
34144;SDS011;69555;53.014;8.886;2024-01-06T03:13:20;16.25;;;8.55;;
34144;SDS011;69555;53.014;8.886;2024-01-06T03:15:47;13.50;;;8.10;;
34144;SDS011;69555;53.014;8.886;2024-01-06T03:18:13;15.73;;;9.05;;
34144;SDS011;69555;53.014;8.886;2024-01-06T03:20:40;17.08;;;8.70;;
34144;SDS011;69555;53.014;8.886;2024-01-06T03:23:06;14.52;;;8.30;;
34144;SDS011;69555;53.014;8.886;2024-01-06T03:25:33;17.65;;;8.90;;
34144;SDS011;69555;53.014;8.886;2024-01-06T03:28:00;20.05;;;9.30;;
34144;SDS011;69555;53.014;8.886;2024-01-06T03:30:27;15.95;;;9.50;;
34144;SDS011;69555;53.014;8.886;2024-01-06T03:32:54;19.83;;;9.82;;
34144;SDS011;69555;53.014;8.886;2024-01-06T03:35:20;17.33;;;10.07;;
34144;SDS011;69555;53.014;8.886;2024-01-06T03:37:47;19.02;;;10.32;;
34144;SDS011;69555;53.014;8.886;2024-01-06T03:40:14;20.40;;;9.13;;
34144;SDS011;69555;53.014;8.886;2024-01-06T03:42:39;15.70;;;8.63;;
34144;SDS011;69555;53.014;8.886;2024-01-06T03:45:06;15.35;;;8.88;;
34144;SDS011;69555;53.014;8.886;2024-01-06T03:47:33;17.52;;;8.60;;
34144;SDS011;69555;53.014;8.886;2024-01-06T03:50:00;15.07;;;9.25;;
34144;SDS011;69555;53.014;8.886;2024-01-06T03:52:27;16.92;;;9.70;;
34144;SDS011;69555;53.014;8.886;2024-01-06T03:54:54;16.38;;;9.07;;
34144;SDS011;69555;53.014;8.886;2024-01-06T03:57:20;14.88;;;9.15;;
34144;SDS011;69555;53.014;8.886;2024-01-06T03:59:47;16.08;;;9.55;;
34144;SDS011;69555;53.014;8.886;2024-01-06T04:02:13;13.52;;;9.02;;
34144;SDS011;69555;53.014;8.886;2024-01-06T04:04:40;15.70;;;8.95;;
34144;SDS011;69555;53.014;8.886;2024-01-06T04:07:07;13.82;;;9.15;;
34144;SDS011;69555;53.014;8.886;2024-01-06T04:09:34;19.83;;;10.80;;
34144;SDS011;69555;53.014;8.886;2024-01-06T04:12:00;16.48;;;9.57;;
34144;SDS011;69555;53.014;8.886;2024-01-06T04:14:27;14.52;;;8.25;;
34144;SDS011;69555;53.014;8.886;2024-01-06T04:16:53;15.65;;;8.63;;
34144;SDS011;69555;53.014;8.886;2024-01-06T04:19:21;15.57;;;8.85;;
34144;SDS011;69555;53.014;8.886;2024-01-06T04:21:48;15.30;;;8.07;;
34144;SDS011;69555;53.014;8.886;2024-01-06T04:24:15;15.85;;;9.02;;
34144;SDS011;69555;53.014;8.886;2024-01-06T04:26:41;16.45;;;9.65;;
34144;SDS011;69555;53.014;8.886;2024-01-06T04:29:11;13.55;;;8.63;;
34144;SDS011;69555;53.014;8.886;2024-01-06T04:31:38;13.13;;;8.32;;
34144;SDS011;69555;53.014;8.886;2024-01-06T04:34:05;14.15;;;9.00;;
34144;SDS011;69555;53.014;8.886;2024-01-06T04:36:32;15.52;;;8.50;;
34144;SDS011;69555;53.014;8.886;2024-01-06T04:38:58;13.40;;;7.88;;
34144;SDS011;69555;53.014;8.886;2024-01-06T04:41:25;17.85;;;8.50;;
34144;SDS011;69555;53.014;8.886;2024-01-06T04:43:51;17.27;;;9.32;;
34144;SDS011;69555;53.014;8.886;2024-01-06T04:46:18;12.48;;;8.13;;
34144;SDS011;69555;53.014;8.886;2024-01-06T04:48:44;14.82;;;7.85;;
34144;SDS011;69555;53.014;8.886;2024-01-06T04:51:11;18.42;;;9.23;;
34144;SDS011;69555;53.014;8.886;2024-01-06T04:53:37;16.52;;;8.40;;
34144;SDS011;69555;53.014;8.886;2024-01-06T04:56:04;13.60;;;8.15;;
34144;SDS011;69555;53.014;8.886;2024-01-06T04:58:31;15.23;;;8.93;;
34144;SDS011;69555;53.014;8.886;2024-01-06T05:00:57;12.25;;;8.00;;
34144;SDS011;69555;53.014;8.886;2024-01-06T05:03:24;15.20;;;8.00;;
34144;SDS011;69555;53.014;8.886;2024-01-06T05:05:51;14.80;;;8.13;;
34144;SDS011;69555;53.014;8.886;2024-01-06T05:08:17;14.00;;;7.53;;
34144;SDS011;69555;53.014;8.886;2024-01-06T05:10:44;13.50;;;7.78;;
34144;SDS011;69555;53.014;8.886;2024-01-06T05:13:13;15.80;;;8.45;;
34144;SDS011;69555;53.014;8.886;2024-01-06T05:15:39;15.00;;;9.80;;
34144;SDS011;69555;53.014;8.886;2024-01-06T05:18:06;18.40;;;10.55;;
34144;SDS011;69555;53.014;8.886;2024-01-06T05:20:32;13.80;;;7.95;;
34144;SDS011;69555;53.014;8.886;2024-01-06T05:22:59;16.88;;;9.18;;
34144;SDS011;69555;53.014;8.886;2024-01-06T05:25:26;16.17;;;8.75;;
34144;SDS011;69555;53.014;8.886;2024-01-06T05:27:52;15.77;;;7.97;;
34144;SDS011;69555;53.014;8.886;2024-01-06T05:30:19;16.00;;;8.13;;
34144;SDS011;69555;53.014;8.886;2024-01-06T05:32:46;17.85;;;9.07;;
34144;SDS011;69555;53.014;8.886;2024-01-06T05:35:12;14.63;;;8.30;;
34144;SDS011;69555;53.014;8.886;2024-01-06T05:37:40;16.00;;;8.98;;
34144;SDS011;69555;53.014;8.886;2024-01-06T05:40:07;14.15;;;8.65;;
34144;SDS011;69555;53.014;8.886;2024-01-06T05:42:34;14.55;;;8.48;;
34144;SDS011;69555;53.014;8.886;2024-01-06T05:44:59;16.02;;;9.65;;
34144;SDS011;69555;53.014;8.886;2024-01-06T05:47:26;13.75;;;7.97;;
34144;SDS011;69555;53.014;8.886;2024-01-06T05:49:52;19.75;;;10.38;;
34144;SDS011;69555;53.014;8.886;2024-01-06T05:52:20;15.80;;;9.35;;
34144;SDS011;69555;53.014;8.886;2024-01-06T05:54:47;18.25;;;9.88;;
34144;SDS011;69555;53.014;8.886;2024-01-06T05:57:14;15.95;;;8.30;;
34144;SDS011;69555;53.014;8.886;2024-01-06T05:59:41;18.85;;;10.63;;
34144;SDS011;69555;53.014;8.886;2024-01-06T06:02:07;15.23;;;9.63;;
34144;SDS011;69555;53.014;8.886;2024-01-06T06:04:34;18.38;;;10.15;;
34144;SDS011;69555;53.014;8.886;2024-01-06T06:07:01;16.85;;;9.73;;
34144;SDS011;69555;53.014;8.886;2024-01-06T06:09:28;17.02;;;10.38;;
34144;SDS011;69555;53.014;8.886;2024-01-06T06:11:55;20.48;;;10.07;;
34144;SDS011;69555;53.014;8.886;2024-01-06T06:14:21;17.17;;;10.43;;
34144;SDS011;69555;53.014;8.886;2024-01-06T06:16:48;20.20;;;10.05;;
34144;SDS011;69555;53.014;8.886;2024-01-06T06:19:15;17.08;;;9.00;;
34144;SDS011;69555;53.014;8.886;2024-01-06T06:21:41;13.18;;;8.50;;
34144;SDS011;69555;53.014;8.886;2024-01-06T06:24:08;19.60;;;10.13;;
34144;SDS011;69555;53.014;8.886;2024-01-06T06:26:34;16.85;;;9.65;;
34144;SDS011;69555;53.014;8.886;2024-01-06T06:29:01;18.52;;;10.20;;
34144;SDS011;69555;53.014;8.886;2024-01-06T06:31:26;19.33;;;9.35;;
34144;SDS011;69555;53.014;8.886;2024-01-06T06:33:53;17.27;;;10.15;;
34144;SDS011;69555;53.014;8.886;2024-01-06T06:36:20;15.80;;;10.30;;
34144;SDS011;69555;53.014;8.886;2024-01-06T06:38:46;17.40;;;10.23;;
34144;SDS011;69555;53.014;8.886;2024-01-06T06:41:13;18.65;;;10.30;;
34144;SDS011;69555;53.014;8.886;2024-01-06T06:43:40;18.75;;;10.70;;
34144;SDS011;69555;53.014;8.886;2024-01-06T06:46:08;19.08;;;9.80;;
34144;SDS011;69555;53.014;8.886;2024-01-06T06:48:34;17.48;;;10.50;;
34144;SDS011;69555;53.014;8.886;2024-01-06T06:51:02;15.13;;;8.82;;
34144;SDS011;69555;53.014;8.886;2024-01-06T06:53:29;14.85;;;8.77;;
34144;SDS011;69555;53.014;8.886;2024-01-06T06:55:55;14.98;;;9.95;;
34144;SDS011;69555;53.014;8.886;2024-01-06T06:58:22;16.90;;;9.63;;
34144;SDS011;69555;53.014;8.886;2024-01-06T07:00:48;20.05;;;9.23;;
34144;SDS011;69555;53.014;8.886;2024-01-06T07:03:15;15.93;;;9.50;;
34144;SDS011;69555;53.014;8.886;2024-01-06T07:05:42;21.17;;;10.93;;
34144;SDS011;69555;53.014;8.886;2024-01-06T07:08:08;19.00;;;10.43;;
34144;SDS011;69555;53.014;8.886;2024-01-06T07:10:35;20.10;;;10.57;;
34144;SDS011;69555;53.014;8.886;2024-01-06T07:13:01;17.90;;;10.45;;
34144;SDS011;69555;53.014;8.886;2024-01-06T07:15:28;17.70;;;9.95;;
34144;SDS011;69555;53.014;8.886;2024-01-06T07:17:55;17.23;;;10.55;;
34144;SDS011;69555;53.014;8.886;2024-01-06T07:20:22;18.08;;;11.30;;
34144;SDS011;69555;53.014;8.886;2024-01-06T07:22:48;18.98;;;10.90;;
34144;SDS011;69555;53.014;8.886;2024-01-06T07:25:15;17.55;;;10.27;;
34144;SDS011;69555;53.014;8.886;2024-01-06T07:27:42;19.23;;;10.98;;
34144;SDS011;69555;53.014;8.886;2024-01-06T07:30:08;19.92;;;9.70;;
34144;SDS011;69555;53.014;8.886;2024-01-06T07:32:35;17.55;;;9.93;;
34144;SDS011;69555;53.014;8.886;2024-01-06T07:35:02;20.95;;;10.82;;
34144;SDS011;69555;53.014;8.886;2024-01-06T07:37:29;19.42;;;10.48;;
34144;SDS011;69555;53.014;8.886;2024-01-06T07:39:55;19.25;;;10.77;;
34144;SDS011;69555;53.014;8.886;2024-01-06T07:42:22;21.60;;;11.63;;
34144;SDS011;69555;53.014;8.886;2024-01-06T07:44:48;24.80;;;11.98;;
34144;SDS011;69555;53.014;8.886;2024-01-06T07:47:15;21.63;;;12.32;;
34144;SDS011;69555;53.014;8.886;2024-01-06T07:49:42;20.58;;;12.85;;
34144;SDS011;69555;53.014;8.886;2024-01-06T07:52:09;28.10;;;14.15;;
34144;SDS011;69555;53.014;8.886;2024-01-06T07:54:35;26.77;;;12.88;;
34144;SDS011;69555;53.014;8.886;2024-01-06T07:57:02;25.70;;;13.48;;
34144;SDS011;69555;53.014;8.886;2024-01-06T07:59:29;30.33;;;13.38;;
34144;SDS011;69555;53.014;8.886;2024-01-06T08:01:56;22.42;;;13.60;;
34144;SDS011;69555;53.014;8.886;2024-01-06T08:04:22;25.23;;;13.05;;
34144;SDS011;69555;53.014;8.886;2024-01-06T08:06:49;25.55;;;13.55;;
34144;SDS011;69555;53.014;8.886;2024-01-06T08:09:16;29.95;;;14.35;;
34144;SDS011;69555;53.014;8.886;2024-01-06T08:11:42;24.77;;;13.77;;
34144;SDS011;69555;53.014;8.886;2024-01-06T08:14:12;24.73;;;14.02;;
34144;SDS011;69555;53.014;8.886;2024-01-06T08:16:39;25.38;;;13.07;;
34144;SDS011;69555;53.014;8.886;2024-01-06T08:19:06;23.35;;;13.65;;
34144;SDS011;69555;53.014;8.886;2024-01-06T08:21:32;26.20;;;13.65;;
34144;SDS011;69555;53.014;8.886;2024-01-06T08:24:00;25.50;;;14.80;;
34144;SDS011;69555;53.014;8.886;2024-01-06T08:26:28;31.35;;;15.27;;
34144;SDS011;69555;53.014;8.886;2024-01-06T08:28:55;27.35;;;14.63;;
34144;SDS011;69555;53.014;8.886;2024-01-06T08:31:22;25.73;;;13.80;;
34144;SDS011;69555;53.014;8.886;2024-01-06T08:33:49;29.95;;;14.65;;
34144;SDS011;69555;53.014;8.886;2024-01-06T08:36:16;28.05;;;15.85;;
34144;SDS011;69555;53.014;8.886;2024-01-06T08:38:43;31.05;;;15.43;;
34144;SDS011;69555;53.014;8.886;2024-01-06T08:41:09;30.58;;;16.10;;
34144;SDS011;69555;53.014;8.886;2024-01-06T08:43:37;28.75;;;15.68;;
34144;SDS011;69555;53.014;8.886;2024-01-06T08:46:04;30.67;;;16.67;;
34144;SDS011;69555;53.014;8.886;2024-01-06T08:48:32;29.55;;;15.25;;
34144;SDS011;69555;53.014;8.886;2024-01-06T08:50:59;32.35;;;16.20;;
34144;SDS011;69555;53.014;8.886;2024-01-06T08:53:25;29.30;;;15.85;;
34144;SDS011;69555;53.014;8.886;2024-01-06T08:55:52;29.95;;;16.27;;
34144;SDS011;69555;53.014;8.886;2024-01-06T08:58:18;31.50;;;16.50;;
34144;SDS011;69555;53.014;8.886;2024-01-06T09:00:45;28.75;;;16.15;;
34144;SDS011;69555;53.014;8.886;2024-01-06T09:03:12;37.35;;;16.85;;
34144;SDS011;69555;53.014;8.886;2024-01-06T09:05:38;29.98;;;16.58;;
34144;SDS011;69555;53.014;8.886;2024-01-06T09:08:05;35.85;;;18.08;;
34144;SDS011;69555;53.014;8.886;2024-01-06T09:10:33;34.17;;;17.63;;
34144;SDS011;69555;53.014;8.886;2024-01-06T09:13:00;33.88;;;18.33;;
34144;SDS011;69555;53.014;8.886;2024-01-06T09:15:28;38.38;;;18.30;;
34144;SDS011;69555;53.014;8.886;2024-01-06T09:17:54;33.47;;;17.85;;
34144;SDS011;69555;53.014;8.886;2024-01-06T09:20:21;36.60;;;17.63;;
34144;SDS011;69555;53.014;8.886;2024-01-06T09:22:50;36.13;;;18.65;;
34144;SDS011;69555;53.014;8.886;2024-01-06T09:25:16;36.38;;;19.33;;
34144;SDS011;69555;53.014;8.886;2024-01-06T09:27:43;35.25;;;18.98;;
34144;SDS011;69555;53.014;8.886;2024-01-06T09:30:09;34.28;;;17.45;;
34144;SDS011;69555;53.014;8.886;2024-01-06T09:32:37;34.75;;;17.77;;
34144;SDS011;69555;53.014;8.886;2024-01-06T09:35:03;39.33;;;18.08;;
34144;SDS011;69555;53.014;8.886;2024-01-06T09:37:31;34.25;;;19.23;;
34144;SDS011;69555;53.014;8.886;2024-01-06T09:39:57;35.78;;;19.88;;
34144;SDS011;69555;53.014;8.886;2024-01-06T09:42:24;36.33;;;17.70;;
34144;SDS011;69555;53.014;8.886;2024-01-06T09:44:51;33.20;;;17.77;;
34144;SDS011;69555;53.014;8.886;2024-01-06T09:47:18;38.00;;;19.98;;
34144;SDS011;69555;53.014;8.886;2024-01-06T09:49:50;33.00;;;17.08;;
34144;SDS011;69555;53.014;8.886;2024-01-06T09:52:20;32.85;;;18.00;;
34144;SDS011;69555;53.014;8.886;2024-01-06T09:54:53;35.20;;;18.73;;
34144;SDS011;69555;53.014;8.886;2024-01-06T09:57:25;33.00;;;18.38;;
34144;SDS011;69555;53.014;8.886;2024-01-06T09:59:52;33.65;;;18.58;;
34144;SDS011;69555;53.014;8.886;2024-01-06T10:02:19;32.78;;;18.38;;
34144;SDS011;69555;53.014;8.886;2024-01-06T10:04:49;32.40;;;17.38;;
34144;SDS011;69555;53.014;8.886;2024-01-06T10:07:17;33.13;;;17.50;;
34144;SDS011;69555;53.014;8.886;2024-01-06T10:09:43;32.13;;;17.65;;
34144;SDS011;69555;53.014;8.886;2024-01-06T10:12:10;35.25;;;18.00;;
34144;SDS011;69555;53.014;8.886;2024-01-06T10:14:37;31.38;;;17.42;;
34144;SDS011;69555;53.014;8.886;2024-01-06T10:17:05;34.05;;;18.23;;
34144;SDS011;69555;53.014;8.886;2024-01-06T10:19:34;34.10;;;18.30;;
34144;SDS011;69555;53.014;8.886;2024-01-06T10:22:01;39.25;;;20.23;;
34144;SDS011;69555;53.014;8.886;2024-01-06T10:24:29;29.80;;;17.70;;
34144;SDS011;69555;53.014;8.886;2024-01-06T10:26:57;36.33;;;19.10;;
34144;SDS011;69555;53.014;8.886;2024-01-06T10:29:25;35.30;;;19.90;;
34144;SDS011;69555;53.014;8.886;2024-01-06T10:31:53;37.15;;;18.77;;
34144;SDS011;69555;53.014;8.886;2024-01-06T10:34:20;39.20;;;19.17;;
34144;SDS011;69555;53.014;8.886;2024-01-06T10:36:47;38.03;;;20.13;;
34144;SDS011;69555;53.014;8.886;2024-01-06T10:39:14;36.22;;;18.63;;
34144;SDS011;69555;53.014;8.886;2024-01-06T10:41:45;41.42;;;19.48;;
34144;SDS011;69555;53.014;8.886;2024-01-06T10:44:14;35.30;;;18.88;;
34144;SDS011;69555;53.014;8.886;2024-01-06T10:46:42;39.00;;;20.50;;
34144;SDS011;69555;53.014;8.886;2024-01-06T10:49:10;41.45;;;20.63;;
34144;SDS011;69555;53.014;8.886;2024-01-06T10:51:38;41.20;;;20.38;;
34144;SDS011;69555;53.014;8.886;2024-01-06T10:54:05;38.10;;;21.40;;
34144;SDS011;69555;53.014;8.886;2024-01-06T10:56:41;46.58;;;22.83;;
34144;SDS011;69555;53.014;8.886;2024-01-06T10:59:09;38.08;;;20.73;;
34144;SDS011;69555;53.014;8.886;2024-01-06T11:01:38;40.80;;;21.70;;
34144;SDS011;69555;53.014;8.886;2024-01-06T11:04:07;42.40;;;20.90;;
34144;SDS011;69555;53.014;8.886;2024-01-06T11:06:33;41.80;;;21.33;;
34144;SDS011;69555;53.014;8.886;2024-01-06T11:11:35;44.65;;;22.48;;
34144;SDS011;69555;53.014;8.886;2024-01-06T11:14:18;41.05;;;22.45;;
34144;SDS011;69555;53.014;8.886;2024-01-06T11:16:50;45.60;;;20.85;;
34144;SDS011;69555;53.014;8.886;2024-01-06T11:24:53;41.58;;;22.30;;
34144;SDS011;69555;53.014;8.886;2024-01-06T11:27:28;43.78;;;22.73;;
34144;SDS011;69555;53.014;8.886;2024-01-06T11:29:58;45.60;;;24.48;;
34144;SDS011;69555;53.014;8.886;2024-01-06T11:32:39;46.53;;;23.02;;
34144;SDS011;69555;53.014;8.886;2024-01-06T11:35:14;49.40;;;23.63;;
34144;SDS011;69555;53.014;8.886;2024-01-06T11:43:11;53.80;;;25.92;;
34144;SDS011;69555;53.014;8.886;2024-01-06T11:45:39;47.20;;;24.40;;
34144;SDS011;69555;53.014;8.886;2024-01-06T11:48:08;56.20;;;25.20;;
34144;SDS011;69555;53.014;8.886;2024-01-06T11:50:37;53.70;;;24.90;;
34144;SDS011;69555;53.014;8.886;2024-01-06T11:53:05;55.37;;;28.10;;
34144;SDS011;69555;53.014;8.886;2024-01-06T11:55:33;50.47;;;26.33;;
34144;SDS011;69555;53.014;8.886;2024-01-06T11:58:01;58.22;;;26.45;;
34144;SDS011;69555;53.014;8.886;2024-01-06T12:00:32;53.75;;;26.00;;
34144;SDS011;69555;53.014;8.886;2024-01-06T12:03:00;57.08;;;29.02;;
34144;SDS011;69555;53.014;8.886;2024-01-06T12:05:27;56.00;;;25.70;;
34144;SDS011;69555;53.014;8.886;2024-01-06T12:08:00;56.10;;;28.38;;
34144;SDS011;69555;53.014;8.886;2024-01-06T12:10:28;52.72;;;25.92;;
34144;SDS011;69555;53.014;8.886;2024-01-06T12:12:58;62.05;;;28.65;;
34144;SDS011;69555;53.014;8.886;2024-01-06T12:15:34;65.85;;;30.08;;
34144;SDS011;69555;53.014;8.886;2024-01-06T12:18:05;66.75;;;28.45;;
34144;SDS011;69555;53.014;8.886;2024-01-06T12:20:33;61.55;;;28.08;;
34144;SDS011;69555;53.014;8.886;2024-01-06T12:23:00;52.50;;;29.05;;
34144;SDS011;69555;53.014;8.886;2024-01-06T12:25:31;59.42;;;29.73;;
34144;SDS011;69555;53.014;8.886;2024-01-06T12:28:01;57.90;;;28.63;;
34144;SDS011;69555;53.014;8.886;2024-01-06T12:30:28;65.93;;;29.40;;
34144;SDS011;69555;53.014;8.886;2024-01-06T12:32:56;59.38;;;29.20;;
34144;SDS011;69555;53.014;8.886;2024-01-06T12:35:23;61.88;;;29.10;;
34144;SDS011;69555;53.014;8.886;2024-01-06T12:37:49;60.75;;;30.15;;
34144;SDS011;69555;53.014;8.886;2024-01-06T12:40:21;69.85;;;30.83;;
34144;SDS011;69555;53.014;8.886;2024-01-06T12:42:48;56.15;;;27.63;;
34144;SDS011;69555;53.014;8.886;2024-01-06T12:45:15;65.45;;;30.27;;
34144;SDS011;69555;53.014;8.886;2024-01-06T12:47:42;70.43;;;30.20;;
34144;SDS011;69555;53.014;8.886;2024-01-06T12:50:09;59.53;;;28.52;;
34144;SDS011;69555;53.014;8.886;2024-01-06T12:52:34;60.20;;;30.58;;
34144;SDS011;69555;53.014;8.886;2024-01-06T12:55:01;58.75;;;29.65;;
34144;SDS011;69555;53.014;8.886;2024-01-06T12:57:28;69.13;;;30.00;;
34144;SDS011;69555;53.014;8.886;2024-01-06T12:59:55;62.40;;;27.70;;
34144;SDS011;69555;53.014;8.886;2024-01-06T13:02:20;62.22;;;26.90;;
34144;SDS011;69555;53.014;8.886;2024-01-06T13:04:48;53.70;;;26.95;;
34144;SDS011;69555;53.014;8.886;2024-01-06T13:07:15;56.83;;;26.58;;
34144;SDS011;69555;53.014;8.886;2024-01-06T13:09:42;44.65;;;24.15;;
34144;SDS011;69555;53.014;8.886;2024-01-06T13:12:08;47.88;;;24.52;;
34144;SDS011;69555;53.014;8.886;2024-01-06T13:14:35;50.45;;;24.02;;
34144;SDS011;69555;53.014;8.886;2024-01-06T13:17:01;41.15;;;21.48;;
34144;SDS011;69555;53.014;8.886;2024-01-06T13:19:28;40.42;;;21.17;;
34144;SDS011;69555;53.014;8.886;2024-01-06T13:21:55;35.88;;;20.23;;
34144;SDS011;69555;53.014;8.886;2024-01-06T13:24:22;38.20;;;20.40;;
34144;SDS011;69555;53.014;8.886;2024-01-06T13:26:49;33.03;;;19.20;;
34144;SDS011;69555;53.014;8.886;2024-01-06T13:29:16;36.15;;;19.23;;
34144;SDS011;69555;53.014;8.886;2024-01-06T13:31:44;32.35;;;18.98;;
34144;SDS011;69555;53.014;8.886;2024-01-06T13:34:10;29.38;;;17.52;;
34144;SDS011;69555;53.014;8.886;2024-01-06T13:36:37;30.83;;;18.05;;
34144;SDS011;69555;53.014;8.886;2024-01-06T13:39:03;33.78;;;19.02;;
34144;SDS011;69555;53.014;8.886;2024-01-06T13:41:30;35.88;;;19.17;;
34144;SDS011;69555;53.014;8.886;2024-01-06T13:43:57;36.03;;;18.60;;
34144;SDS011;69555;53.014;8.886;2024-01-06T13:46:23;32.95;;;17.67;;
34144;SDS011;69555;53.014;8.886;2024-01-06T13:48:51;32.72;;;17.80;;
34144;SDS011;69555;53.014;8.886;2024-01-06T13:51:17;35.67;;;18.02;;
34144;SDS011;69555;53.014;8.886;2024-01-06T13:53:44;34.17;;;18.52;;
34144;SDS011;69555;53.014;8.886;2024-01-06T13:56:10;30.40;;;17.77;;
34144;SDS011;69555;53.014;8.886;2024-01-06T13:58:36;30.60;;;17.95;;
34144;SDS011;69555;53.014;8.886;2024-01-06T14:01:04;32.67;;;17.00;;
34144;SDS011;69555;53.014;8.886;2024-01-06T14:03:31;31.35;;;17.77;;
34144;SDS011;69555;53.014;8.886;2024-01-06T14:05:57;38.55;;;17.30;;
34144;SDS011;69555;53.014;8.886;2024-01-06T14:08:24;31.63;;;17.30;;
34144;SDS011;69555;53.014;8.886;2024-01-06T14:10:51;31.40;;;17.50;;
34144;SDS011;69555;53.014;8.886;2024-01-06T14:13:17;29.27;;;17.00;;
34144;SDS011;69555;53.014;8.886;2024-01-06T14:15:44;33.70;;;19.38;;
34144;SDS011;69555;53.014;8.886;2024-01-06T14:18:11;38.67;;;19.42;;
34144;SDS011;69555;53.014;8.886;2024-01-06T14:20:40;28.67;;;17.73;;
34144;SDS011;69555;53.014;8.886;2024-01-06T14:23:07;36.67;;;18.25;;
34144;SDS011;69555;53.014;8.886;2024-01-06T14:25:34;33.20;;;19.50;;
34144;SDS011;69555;53.014;8.886;2024-01-06T14:28:01;35.38;;;19.13;;
34144;SDS011;69555;53.014;8.886;2024-01-06T14:30:28;37.67;;;19.50;;
34144;SDS011;69555;53.014;8.886;2024-01-06T14:32:55;35.67;;;17.88;;
34144;SDS011;69555;53.014;8.886;2024-01-06T14:35:22;34.38;;;17.85;;
34144;SDS011;69555;53.014;8.886;2024-01-06T14:37:48;31.75;;;19.25;;